Time;durP1;ratioP1;P1;durP2;ratioP2;P2;SDS_P1;SDS_P2;PMS_P1;PMS_P2;Temp;Humidity;BMP_temperature;BMP_pressure;BME280_temperature;BME280_humidity;BME280_pressure;Samples;Min_cycle;Max_cycle;Signal;HPM_P1;HPM_P2
2021/01/27 00:01:12;;;;;;;46.42;18.67;;;;;;;-1.71;86.62;98357.97;2161016;82;21160;-65
2021/01/27 00:04:13;;;;;;;43.85;17.05;;;;;;;-1.71;86.89;98371.69;2161671;82;21278;-65
2021/01/27 00:07:14;;;;;;;46.33;18.98;;;;;;;-1.73;87.11;98377.28;2161538;82;21289;-66
2021/01/27 00:10:15;;;;;;;44.58;18.82;;;;;;;-1.79;87.21;98378.24;2140134;82;21254;-65
2021/01/27 00:13:16;;;;;;;38.98;16.57;;;;;;;-1.82;87.46;98373.16;2161045;82;21158;-68
2021/01/27 00:16:18;;;;;;;43.25;17.77;;;;;;;-1.81;87.38;98376.16;2161447;82;21285;-69
2021/01/27 00:19:19;;;;;;;40.40;17.07;;;;;;;-1.81;87.31;98380.01;2161053;82;21273;-65
2021/01/27 00:22:21;;;;;;;41.37;17.90;;;;;;;-1.83;87.12;98374.03;2161233;82;21709;-65
2021/01/27 00:25:22;;;;;;;41.20;18.15;;;;;;;-1.83;87.20;98374.03;2161151;82;21333;-66
2021/01/27 00:28:23;;;;;;;39.80;17.17;;;;;;;-1.82;87.06;98373.16;2177545;81;21773;-70
2021/01/27 00:31:24;;;;;;;42.08;17.00;;;;;;;-1.82;87.14;98375.73;2178665;82;21301;-72
2021/01/27 00:34:25;;;;;;;39.60;17.02;;;;;;;-1.83;87.23;98372.74;2178703;81;21134;-71
2021/01/27 00:37:27;;;;;;;38.02;16.32;;;;;;;-1.83;87.12;98372.74;2178723;81;21155;-68
2021/01/27 00:40:28;;;;;;;42.40;17.32;;;;;;;-1.83;87.22;98365.03;2179330;81;21285;-66
2021/01/27 00:43:29;;;;;;;42.85;17.55;;;;;;;-1.81;87.02;98359.44;2178848;81;21293;-65
2021/01/27 00:46:30;;;;;;;40.98;17.02;;;;;;;-1.77;86.98;98358.93;2178439;81;21269;-65
2021/01/27 00:49:31;;;;;;;40.23;16.45;;;;;;;-1.77;87.09;98355.07;2178640;81;21725;-65
2021/01/27 00:52:33;;;;;;;40.43;17.40;;;;;;;-1.77;86.99;98356.36;2178412;81;21277;-65
2021/01/27 00:55:34;;;;;;;41.00;16.13;;;;;;;-1.75;86.87;98356.74;2179051;81;21697;-66
2021/01/27 00:58:35;;;;;;;41.02;17.10;;;;;;;-1.72;86.98;98354.98;2178615;81;21709;-66
2021/01/27 01:01:36;;;;;;;37.50;16.17;;;;;;;-1.72;87.05;98359.70;2178865;81;21135;-66
2021/01/27 01:04:38;;;;;;;38.50;16.65;;;;;;;-1.73;87.20;98357.16;2178408;81;21312;-65
2021/01/27 01:07:39;;;;;;;39.42;16.35;;;;;;;-1.77;87.34;98364.94;2178427;81;21261;-65
2021/01/27 01:10:40;;;;;;;41.00;15.83;;;;;;;-1.79;87.39;98363.27;2178659;82;21265;-68
2021/01/27 01:13:41;;;;;;;41.75;16.23;;;;;;;-1.82;87.71;98356.90;2178515;81;21697;-69
2021/01/27 01:16:42;;;;;;;38.98;15.03;;;;;;;-1.84;87.74;98358.22;2178520;82;21142;-71
2021/01/27 01:19:44;;;;;;;39.48;17.02;;;;;;;-1.84;87.95;98358.22;2178424;82;21721;-72
2021/01/27 01:22:45;;;;;;;39.78;17.82;;;;;;;-1.84;87.71;98351.78;2178805;81;21151;-74
2021/01/27 01:25:47;;;;;;;36.08;15.95;;;;;;;-1.83;87.55;98348.77;2178586;81;21322;-72
2021/01/27 01:28:48;;;;;;;40.75;15.40;;;;;;;-1.84;87.67;98352.20;2178589;81;21281;-73
2021/01/27 01:31:49;;;;;;;40.03;15.40;;;;;;;-1.86;87.87;98344.52;2178330;81;21288;-67
2021/01/27 01:34:50;;;;;;;36.35;15.18;;;;;;;-1.87;87.91;98342.81;2178484;82;21280;-66
2021/01/27 01:37:51;;;;;;;39.30;16.85;;;;;;;-1.86;88.02;98340.66;2178845;81;21147;-70
2021/01/27 01:40:54;;;;;;;42.75;17.95;;;;;;;-1.85;87.88;98341.09;2178832;81;21261;-68
2021/01/27 01:43:55;;;;;;;41.57;17.73;;;;;;;-1.83;87.92;98346.20;2178586;82;21725;-65
2021/01/27 01:46:56;;;;;;;41.45;18.73;;;;;;;-1.83;88.16;98342.34;2178764;81;21158;-66
2021/01/27 01:49:58;;;;;;;39.45;17.30;;;;;;;-1.84;87.99;98340.22;2178395;82;21139;-68
2021/01/27 01:52:59;;;;;;;37.17;15.18;;;;;;;-1.82;88.02;98344.88;2178714;82;21619;-68
2021/01/27 01:56:00;;;;;;;43.40;18.32;;;;;;;-1.78;88.00;98346.52;2178560;81;21296;-65
2021/01/27 01:59:02;;;;;;;41.40;17.60;;;;;;;-1.78;87.88;98338.81;2178472;82;21772;-66
2021/01/27 02:02:03;;;;;;;37.45;15.45;;;;;;;-1.76;87.88;98338.33;2178471;82;21586;-68
2021/01/27 02:05:04;;;;;;;42.03;18.45;;;;;;;-1.76;87.88;98340.06;2178430;81;21571;-65
2021/01/27 02:08:05;;;;;;;41.28;17.15;;;;;;;-1.75;87.92;98328.45;2178391;81;21280;-65
2021/01/27 02:11:06;;;;;;;38.88;14.47;;;;;;;-1.72;87.83;98330.13;2178826;81;21144;-66
2021/01/27 02:14:08;;;;;;;41.63;17.98;;;;;;;-1.70;87.97;98326.24;2178349;82;21288;-65
2021/01/27 02:17:09;;;;;;;41.83;17.40;;;;;;;-1.69;88.09;98327.95;2151108;82;21138;-69
2021/01/27 02:20:10;;;;;;;42.48;17.25;;;;;;;-1.68;88.07;98320.20;2178814;82;21111;-65
2021/01/27 02:23:11;;;;;;;41.40;18.23;;;;;;;-1.66;88.03;98327.43;2178530;81;21298;-65
2021/01/27 02:26:12;;;;;;;43.42;17.60;;;;;;;-1.66;88.03;98326.59;2177935;81;21166;-68
2021/01/27 02:29:13;;;;;;;40.85;18.40;;;;;;;-1.66;87.98;98330.45;2160952;82;21334;-70
2021/01/27 02:32:14;;;;;;;45.23;19.20;;;;;;;-1.66;88.08;98331.29;2161157;82;21277;-66
2021/01/27 02:35:16;;;;;;;39.35;16.80;;;;;;;-1.64;87.95;98324.83;2139954;82;21273;-66
2021/01/27 02:38:17;;;;;;;39.27;16.73;;;;;;;-1.62;87.86;98320.52;2161176;82;21297;-65
2021/01/27 02:41:18;;;;;;;45.55;19.00;;;;;;;-1.63;87.93;98320.10;2161147;82;21738;-68
2021/01/27 02:44:19;;;;;;;43.25;18.37;;;;;;;-1.63;88.06;98329.94;2161379;82;21294;-70
2021/01/27 02:47:20;;;;;;;46.28;20.35;;;;;;;-1.63;88.01;98328.66;2161423;82;21289;-72
2021/01/27 02:50:21;;;;;;;44.08;18.57;;;;;;;-1.62;87.79;98329.52;2160898;82;21194;-70
2021/01/27 02:53:22;;;;;;;42.75;18.75;;;;;;;-1.61;87.93;98323.05;2161173;82;21270;-72
2021/01/27 02:56:24;;;;;;;41.77;18.55;;;;;;;-1.55;87.91;98313.50;2161176;82;21285;-72
2021/01/27 02:59:25;;;;;;;42.67;18.07;;;;;;;-1.54;87.73;98315.20;2161277;82;21281;-72
2021/01/27 03:02:26;;;;;;;42.80;18.98;;;;;;;-1.55;87.76;98320.80;2160907;82;21601;-65
2021/01/27 03:05:28;;;;;;;46.47;20.70;;;;;;;-1.57;87.78;98319.55;2161195;82;21642;-72
2021/01/27 03:08:29;;;;;;;46.13;19.80;;;;;;;-1.55;87.86;98323.38;2161366;82;21713;-70
2021/01/27 03:11:30;;;;;;;44.88;19.32;;;;;;;-1.52;88.02;98327.17;2161564;82;21302;-65
2021/01/27 03:14:31;;;;;;;39.35;16.87;;;;;;;-1.52;88.24;98326.30;2161537;82;21274;-70
2021/01/27 03:17:33;;;;;;;43.92;19.27;;;;;;;-1.54;88.42;98330.19;2161294;82;21301;-66
2021/01/27 03:20:34;;;;;;;42.78;17.73;;;;;;;-1.56;88.72;98339.67;2161349;82;21277;-65
2021/01/27 03:23:35;;;;;;;42.78;18.05;;;;;;;-1.58;88.83;98337.14;2161197;82;21317;-68
2021/01/27 03:26:36;;;;;;;41.02;18.00;;;;;;;-1.59;88.80;98336.72;2162590;81;21285;-66
2021/01/27 03:29:38;;;;;;;46.68;20.62;;;;;;;-1.58;88.78;98334.98;2179003;81;21158;-65
2021/01/27 03:32:39;;;;;;;43.13;19.50;;;;;;;-1.56;88.67;98335.81;2178617;81;21268;-66
2021/01/27 03:35:41;;;;;;;44.05;19.57;;;;;;;-1.55;88.60;98333.66;2150687;82;21312;-65
2021/01/27 03:38:42;;;;;;;42.88;17.65;;;;;;;-1.57;88.70;98340.55;2178742;82;21562;-65
2021/01/27 03:41:43;;;;;;;43.83;18.92;;;;;;;-1.58;88.86;98342.70;2178595;82;21718;-67
2021/01/27 03:44:44;;;;;;;43.98;18.35;;;;;;;-1.58;88.96;98332.41;2178776;81;21291;-67
2021/01/27 03:47:45;;;;;;;43.55;19.12;;;;;;;-1.55;88.95;98337.94;2178719;81;21285;-68
2021/01/27 03:50:46;;;;;;;44.18;20.02;;;;;;;-1.57;88.70;98332.41;2178929;81;21134;-66
2021/01/27 03:53:48;;;;;;;43.63;19.48;;;;;;;-1.52;88.67;98325.02;2178514;82;21292;-67
2021/01/27 03:56:49;;;;;;;40.40;18.35;;;;;;;-1.49;88.74;98332.24;2178481;81;21261;-69
2021/01/27 03:59:50;;;;;;;42.35;18.27;;;;;;;-1.47;88.75;98324.05;2178496;81;21281;-70
2021/01/27 04:02:51;;;;;;;44.98;19.37;;;;;;;-1.47;88.81;98330.92;2178813;81;21135;-70
2021/01/27 04:05:52;;;;;;;40.67;16.97;;;;;;;-1.47;88.79;98317.61;2178949;81;21264;-72
2021/01/27 04:08:53;;;;;;;40.33;18.00;;;;;;;-1.48;88.93;98326.23;2178947;81;21150;-72
2021/01/27 04:11:54;;;;;;;39.50;16.95;;;;;;;-1.48;89.07;98326.23;2178877;82;21154;-74
2021/01/27 04:14:55;;;;;;;45.20;19.32;;;;;;;-1.48;89.18;98331.37;2178751;81;21292;-71
2021/01/27 04:17:56;;;;;;;41.75;19.75;;;;;;;-1.47;89.13;98326.62;2178606;81;21724;-73
2021/01/27 04:20:58;;;;;;;44.65;19.73;;;;;;;-1.48;89.21;98321.09;2178461;81;21313;-73
2021/01/27 04:23:59;;;;;;;39.85;17.00;;;;;;;-1.46;89.28;98323.63;2178420;81;21170;-71
2021/01/27 04:27:00;;;;;;;42.00;18.62;;;;;;;-1.46;89.56;98314.63;2178837;81;21166;-72
2021/01/27 04:30:01;;;;;;;37.63;16.37;;;;;;;-1.46;89.63;98319.31;2178497;81;21256;-73
2021/01/27 04:33:02;;;;;;;40.90;18.05;;;;;;;-1.46;89.53;98330.89;2178446;81;21284;-73
2021/01/27 04:36:04;;;;;;;35.27;14.77;;;;;;;-1.45;89.44;98324.87;2178799;81;21757;-74
2021/01/27 04:39:05;;;;;;;43.33;19.43;;;;;;;-1.42;89.57;98327.38;2178905;82;21566;-70
2021/01/27 04:42:07;;;;;;;40.00;18.45;;;;;;;-1.41;89.75;98330.80;2178771;81;21150;-74
2021/01/27 04:45:08;;;;;;;39.17;17.20;;;;;;;-1.38;89.55;98340.17;2178765;82;21590;-73
2021/01/27 04:48:09;;;;;;;37.13;15.95;;;;;;;-1.38;89.59;98346.61;2151044;82;21281;-73
2021/01/27 04:51:13;;;;;;;41.37;18.62;;;;;;;-1.38;89.73;98336.32;2178720;82;21159;-66
2021/01/27 04:54:14;;;;;;;38.55;16.95;;;;;;;-1.35;89.55;98334.97;2178415;82;21264;-66
2021/01/27 04:57:15;;;;;;;36.25;15.72;;;;;;;-1.35;89.63;98337.12;2178820;81;21162;-65
2021/01/27 05:00:17;;;;;;;43.38;18.80;;;;;;;-1.37;89.44;98338.86;2150935;82;22068;-65
2021/01/27 05:03:18;;;;;;;40.50;16.27;;;;;;;-1.35;89.37;98342.27;2178374;82;21293;-65
2021/01/27 05:06:19;;;;;;;39.95;16.82;;;;;;;-1.36;89.56;98338.44;2178682;82;21360;-66
2021/01/27 05:09:20;;;;;;;36.50;15.20;;;;;;;-1.34;89.35;98345.67;2178669;82;21701;-65
2021/01/27 05:12:21;;;;;;;37.63;13.88;;;;;;;-1.35;89.47;98345.26;2178591;82;21567;-65
2021/01/27 05:15:23;;;;;;;38.83;16.60;;;;;;;-1.34;89.20;98346.96;2178731;82;21579;-70
2021/01/27 05:18:24;;;;;;;37.58;16.15;;;;;;;-1.34;88.99;98336.22;2150759;82;21281;-66
2021/01/27 05:21:25;;;;;;;35.15;13.78;;;;;;;-1.33;88.67;98336.63;2178378;81;21276;-66
2021/01/27 05:24:27;;;;;;;37.53;17.50;;;;;;;-1.34;88.50;98338.79;2178632;81;21304;-69
2021/01/27 05:27:28;;;;;;;35.70;15.90;;;;;;;-1.33;88.40;98340.95;2174815;81;21313;-69
2021/01/27 05:30:29;;;;;;;37.65;15.95;;;;;;;-1.35;88.37;98343.55;2161176;82;21547;-66
2021/01/27 05:33:30;;;;;;;40.55;16.50;;;;;;;-1.35;88.32;98347.83;2160987;82;21602;-68
2021/01/27 05:36:31;;;;;;;38.95;17.05;;;;;;;-1.34;88.47;98350.38;2161158;82;21587;-66
2021/01/27 05:39:33;;;;;;;35.98;16.67;;;;;;;-1.35;88.55;98348.70;2161201;82;21289;-69
2021/01/27 05:42:34;;;;;;;34.75;15.75;;;;;;;-1.35;88.51;98349.12;2160954;82;21132;-68
2021/01/27 05:45:36;;;;;;;37.13;16.95;;;;;;;-1.35;88.48;98346.13;2161050;82;21625;-66
2021/01/27 05:48:38;;;;;;;38.65;17.48;;;;;;;-1.35;88.49;98344.84;2161282;82;21317;-66
2021/01/27 05:51:39;;;;;;;39.15;17.87;;;;;;;-1.35;88.44;98345.26;2160928;82;21194;-65
2021/01/27 05:54:40;;;;;;;35.38;14.85;;;;;;;-1.34;88.30;98342.65;2160973;82;21610;-66
2021/01/27 05:57:41;;;;;;;37.50;16.45;;;;;;;-1.34;88.16;98352.11;2161464;82;21277;-65
2021/01/27 06:00:42;;;;;;;36.25;15.93;;;;;;;-1.34;88.01;98357.25;2161419;82;21324;-66
2021/01/27 06:03:44;;;;;;;33.13;13.18;;;;;;;-1.33;87.54;98352.52;2160913;82;21578;-67
2021/01/27 06:06:45;;;;;;;33.40;14.23;;;;;;;-1.32;87.12;98378.64;2161191;82;21709;-65
2021/01/27 06:09:46;;;;;;;32.93;13.10;;;;;;;-1.31;86.33;98362.33;2160978;82;21123;-68
2021/01/27 06:12:47;;;;;;;32.17;12.73;;;;;;;-1.31;86.03;98373.91;2160941;82;21178;-67
2021/01/27 06:15:48;;;;;;;31.42;12.90;;;;;;;-1.30;85.45;98376.91;2161086;82;21270;-69
2021/01/27 06:18:50;;;;;;;33.57;14.53;;;;;;;-1.30;85.49;98370.02;2161465;82;21284;-68
2021/01/27 06:21:51;;;;;;;34.23;14.53;;;;;;;-1.29;85.78;98374.30;2161168;82;21135;-73
2021/01/27 06:24:53;;;;;;;34.55;13.93;;;;;;;-1.30;85.63;98380.31;2161016;82;21737;-70
2021/01/27 06:27:54;;;;;;;38.10;15.05;;;;;;;-1.29;85.52;98378.16;2160902;81;21155;-71
2021/01/27 06:30:55;;;;;;;34.63;13.83;;;;;;;-1.28;85.57;98382.85;2161113;82;21293;-67
2021/01/27 06:33:56;;;;;;;37.63;16.80;;;;;;;-1.27;85.75;98381.53;2161428;82;21278;-67
2021/01/27 06:36:58;;;;;;;36.80;15.43;;;;;;;-1.26;85.96;98384.52;2160942;82;21120;-68
2021/01/27 06:39:59;;;;;;;40.85;16.93;;;;;;;-1.27;86.16;98392.28;2161132;82;21709;-72
2021/01/27 06:43:00;;;;;;;35.70;16.35;;;;;;;-1.28;86.55;98380.28;2161083;82;21255;-68
2021/01/27 06:46:02;;;;;;;38.13;16.20;;;;;;;-1.27;86.46;98392.28;2161145;82;21310;-70
2021/01/27 06:49:03;;;;;;;35.43;15.18;;;;;;;-1.29;86.52;98391.47;2161622;82;21131;-67
2021/01/27 06:52:04;;;;;;;36.03;14.25;;;;;;;-1.30;86.38;98389.32;2161247;82;21528;-72
2021/01/27 06:55:06;;;;;;;38.25;15.48;;;;;;;-1.30;86.51;98393.17;2161345;82;21576;-71
2021/01/27 06:58:07;;;;;;;37.17;15.72;;;;;;;-1.29;86.68;98394.05;2161319;82;21750;-71
2021/01/27 07:01:08;;;;;;;35.17;15.43;;;;;;;-1.29;86.71;98397.91;2161563;82;21298;-72
2021/01/27 07:04:10;;;;;;;35.55;15.35;;;;;;;-1.27;86.66;98400.83;2161215;82;21725;-72
2021/01/27 07:07:11;;;;;;;35.60;15.40;;;;;;;-1.27;86.30;98400.83;2161355;82;21554;-68
2021/01/27 07:10:12;;;;;;;33.67;13.58;;;;;;;-1.26;86.34;98406.84;2161575;82;21258;-68
2021/01/27 07:13:14;;;;;;;37.23;14.83;;;;;;;-1.26;86.47;98412.83;2161325;82;21143;-67
2021/01/27 07:16:17;;;;;;;35.65;14.93;;;;;;;-1.27;86.61;98407.27;2161326;82;21563;-68
2021/01/27 07:19:19;;;;;;;;;;;;;;;-1.26;86.75;98412.83;2164156;82;21131;-71
2021/01/27 07:22:21;;;;;;;37.40;14.97;;;;;;;-1.24;86.70;98409.77;2161350;82;20226;-66
2021/01/27 07:25:23;;;;;;;37.08;15.20;;;;;;;-1.26;87.15;98407.69;2161410;82;21290;-68
2021/01/27 07:28:26;;;;;;;36.68;14.23;;;;;;;-1.25;87.22;98407.23;2161366;81;21270;-65
2021/01/27 07:31:28;;;;;;;34.38;14.30;;;;;;;-1.25;87.17;98413.67;2161288;82;21796;-67
2021/01/27 07:34:30;;;;;;;34.20;14.00;;;;;;;-1.24;87.06;98414.92;2161329;82;21716;-66
2021/01/27 07:37:32;;;;;;;38.00;14.20;;;;;;;-1.22;86.87;98417.50;2161240;82;21254;-65
2021/01/27 07:40:35;;;;;;;33.78;14.55;;;;;;;-1.22;86.76;98410.61;2161203;82;21731;-65
2021/01/27 07:43:37;;;;;;;30.12;11.88;;;;;;;-1.22;86.33;98409.77;2161690;82;21289;-65
2021/01/27 07:46:40;;;;;;;;;;;;;;;-1.21;86.76;98406.30;2163788;82;21162;-65
2021/01/27 07:49:42;;;;;;;36.13;13.87;;;;;;;-1.20;87.01;98406.72;2161347;82;20230;-65
2021/01/27 07:52:44;;;;;;;32.08;12.93;;;;;;;-1.16;87.27;98405.78;2161125;82;21738;-67
2021/01/27 07:55:47;;;;;;;34.43;14.00;;;;;;;-1.12;86.76;98411.28;2161327;82;21277;-73
2021/01/27 07:58:50;;;;;;;29.60;12.98;;;;;;;-1.08;86.74;98406.90;2161179;82;21685;-71
2021/01/27 08:01:52;;;;;;;34.08;13.05;;;;;;;-1.03;85.06;98402.52;2161314;82;21749;-66
2021/01/27 08:04:55;;;;;;;;;;;;;;;-1.02;84.33;98414.94;2163771;82;21742;-66
2021/01/27 08:07:58;;;;;;;33.13;14.07;;;;;;;-0.98;85.22;98407.56;2161074;82;20269;-69
2021/01/27 08:11:00;;;;;;;35.48;14.70;;;;;;;-1.02;84.78;98410.66;2161359;82;21290;-66
2021/01/27 08:14:02;;;;;;;35.40;14.58;;;;;;;-1.01;85.15;98413.61;2161287;82;21108;-65
2021/01/27 08:17:04;;;;;;;32.75;12.90;;;;;;;-0.96;84.65;98415.67;2161218;82;21258;-65
2021/01/27 08:20:07;;;;;;;31.73;12.18;;;;;;;-0.95;84.48;98417.79;2161120;82;21103;-65
2021/01/27 08:23:09;;;;;;;32.63;12.85;;;;;;;-0.96;83.75;98423.39;2161032;82;21595;-67
2021/01/27 08:26:12;;;;;;;31.95;12.88;;;;;;;-0.97;83.95;98424.27;2161614;82;21296;-66
2021/01/27 08:29:14;;;;;;;31.85;13.08;;;;;;;-0.95;83.63;98426.80;2161318;82;21182;-68
2021/01/27 08:32:16;;;;;;;33.83;14.95;;;;;;;-0.92;84.27;98426.73;2161421;82;21273;-66
2021/01/27 08:35:19;;;;;;;34.35;14.45;;;;;;;-0.89;84.39;98426.66;2161632;82;21301;-66
2021/01/27 08:38:22;;;;;;;33.28;13.80;;;;;;;-0.84;84.46;98422.73;2161187;82;21186;-65
2021/01/27 08:41:24;;;;;;;32.55;13.53;;;;;;;-0.86;83.52;98427.92;2161238;82;21274;-69
2021/01/27 08:44:26;;;;;;;32.03;13.72;;;;;;;-0.88;83.46;98430.95;2161350;82;21317;-68
2021/01/27 08:47:29;;;;;;;;;;;;;;;-0.89;84.14;98436.55;2163534;82;21161;-67
2021/01/27 08:50:31;;;;;;;36.70;14.30;;;;;;;-0.87;84.35;98437.34;2161724;82;20166;-65
2021/01/27 08:53:33;;;;;;;34.65;14.65;;;;;;;-0.88;84.43;98432.23;2161357;82;21289;-67
2021/01/27 08:56:35;;;;;;;33.20;14.00;;;;;;;-0.85;84.66;98440.34;2161262;82;21304;-69
2021/01/27 08:59:37;;;;;;;36.77;14.10;;;;;;;-0.89;84.62;98437.84;2161372;82;21563;-69
2021/01/27 09:02:40;;;;;;;34.83;14.90;;;;;;;-0.90;85.25;98451.58;2161544;82;21277;-66
2021/01/27 09:05:42;;;;;;;34.58;15.08;;;;;;;-0.91;84.65;98439.58;2161569;82;21289;-70
2021/01/27 09:08:44;;;;;;;34.20;13.35;;;;;;;-0.91;85.23;98456.77;2161559;82;21294;-66
2021/01/27 09:11:46;;;;;;;35.75;14.05;;;;;;;-0.93;85.12;98457.25;2161327;82;21322;-66
2021/01/27 09:14:49;;;;;;;34.40;14.75;;;;;;;-0.90;85.62;98456.73;2161093;82;21293;-65
2021/01/27 09:17:51;;;;;;;33.25;14.23;;;;;;;-0.82;85.33;98456.59;2161234;82;21278;-68
2021/01/27 09:20:54;;;;;;;;;;;;;;;;;;2164007;82;21131;-69
2021/01/27 09:23:56;;;;;;;32.33;11.88;;;;;;;-0.73;84.27;98448.66;2161112;82;20127;-67
2021/01/27 09:26:58;;;;;;;29.42;12.53;;;;;;;-0.72;83.20;98454.22;2161345;82;21746;-65
2021/01/27 09:30:01;;;;;;;32.70;13.10;;;;;;;-0.70;83.44;98458.05;2167760;81;21182;-66
2021/01/27 09:33:04;;;;;;;29.48;11.60;;;;;;;-0.64;83.07;98454.50;2171143;82;21733;-65
2021/01/27 09:36:07;;;;;;;32.78;13.50;;;;;;;-0.63;82.48;98457.46;2171674;82;21270;-66
2021/01/27 09:39:09;;;;;;;33.35;13.15;;;;;;;-0.64;83.16;98462.23;2171370;82;21288;-66
2021/01/27 09:42:13;;;;;;;31.77;12.47;;;;;;;-0.71;83.15;98457.19;2171201;82;21613;-67
2021/01/27 09:45:16;;;;;;;29.80;11.78;;;;;;;-0.75;83.32;98456.88;2171252;82;21289;-66
2021/01/27 09:48:18;;;;;;;32.38;11.78;;;;;;;-0.80;82.92;98456.11;2171277;82;21179;-64
2021/01/27 09:51:20;;;;;;;32.38;12.68;;;;;;;-0.81;83.02;98460.00;2171213;82;21280;-65
2021/01/27 09:54:23;;;;;;;29.30;11.93;;;;;;;-0.80;82.89;98465.12;2171462;82;21155;-66
2021/01/27 09:57:26;;;;;;;29.48;11.40;;;;;;;-0.82;82.97;98457.88;2171224;82;21245;-65
2021/01/27 10:00:29;;;;;;;30.70;11.95;;;;;;;-0.82;82.83;98442.42;2171206;82;21304;-63
2021/01/27 10:03:32;;;;;;;31.50;12.13;;;;;;;-0.82;82.83;98442.42;2171172;82;21728;-66
2021/01/27 10:06:34;;;;;;;28.80;9.80;;;;;;;-0.78;82.99;98454.78;2141637;82;21139;-64
2021/01/27 10:09:37;;;;;;;27.82;10.82;;;;;;;-0.82;82.34;98458.30;2171408;82;21146;-63
2021/01/27 10:12:39;;;;;;;31.40;11.05;;;;;;;-0.82;82.41;98465.61;2171697;82;21170;-65
2021/01/27 10:15:41;;;;;;;29.15;10.78;;;;;;;-0.88;82.98;98452.41;2171242;82;21131;-65
2021/01/27 10:18:43;;;;;;;;;;;;;;;-0.90;83.05;98449.45;2173794;82;21747;-67
2021/01/27 10:21:46;;;;;;;26.80;9.33;;;;;;;-0.92;83.32;98452.48;2171310;82;20219;-66
2021/01/27 10:24:48;;;;;;;29.67;11.75;;;;;;;-0.94;83.17;98455.09;2171214;82;21187;-63
2021/01/27 10:27:51;;;;;;;30.77;11.25;;;;;;;-0.96;83.65;98445.28;2170929;82;21087;-64
2021/01/27 10:30:54;;;;;;;30.72;10.08;;;;;;;-0.95;83.73;98446.11;2177572;82;21713;-64
2021/01/27 10:33:56;;;;;;;;;;;;;;;-1.02;82.73;98457.00;2181326;81;21149;-65
2021/01/27 10:36:58;;;;;;;31.20;10.37;;;;;;;-0.98;82.80;98450.05;2178636;82;20154;-65
2021/01/27 10:40:00;;;;;;;28.62;10.30;;;;;;;-0.93;82.70;98443.09;2178550;82;21522;-66
2021/01/27 10:43:03;;;;;;;30.80;10.40;;;;;;;-0.92;82.53;98448.63;2178693;82;21302;-67
2021/01/27 10:46:05;;;;;;;28.95;11.12;;;;;;;-0.89;81.76;98444.69;2178438;81;21231;-64
2021/01/27 10:49:07;;;;;;;29.42;10.58;;;;;;;-0.89;82.23;98438.25;2178921;81;21268;-63
2021/01/27 10:52:09;;;;;;;28.35;10.65;;;;;;;-0.89;81.95;98448.13;2178539;81;21289;-63
2021/01/27 10:55:13;;;;;;;27.65;9.65;;;;;;;-0.83;81.78;98439.44;2178723;81;21677;-63
2021/01/27 10:58:16;;;;;;;22.90;8.23;;;;;;;-0.86;80.95;98449.80;2178843;81;21143;-65
2021/01/27 11:01:18;;;;;;;26.97;9.90;;;;;;;-0.87;80.63;98437.80;2178443;82;21300;-65
2021/01/27 11:04:20;;;;;;;29.85;10.88;;;;;;;-0.84;81.00;98440.76;2178901;82;21162;-65
2021/01/27 11:07:22;;;;;;;35.15;11.70;;;;;;;-0.84;80.77;98440.76;2178696;82;21285;-63
2021/01/27 11:10:25;;;;;;;31.57;11.30;;;;;;;-0.88;80.77;98443.82;2178703;82;21277;-63
2021/01/27 11:13:27;;;;;;;31.42;10.65;;;;;;;-0.89;80.86;98447.27;2178558;82;21748;-63
2021/01/27 11:16:29;;;;;;;28.50;9.98;;;;;;;-0.90;80.03;98450.30;2178816;81;21134;-62
2021/01/27 11:19:32;;;;;;;;;;;;;;;-0.86;79.48;98440.79;2181430;82;21147;-63
2021/01/27 11:22:35;;;;;;;28.52;9.75;;;;;;;-0.85;79.52;98447.62;2178696;82;20390;-63
2021/01/27 11:25:37;;;;;;;28.60;9.30;;;;;;;-0.89;78.88;98442.98;2178564;81;21167;-63
2021/01/27 11:28:39;;;;;;;28.52;10.30;;;;;;;-0.90;79.17;98443.02;2178814;81;21546;-65
2021/01/27 11:31:41;;;;;;;28.42;10.25;;;;;;;-0.87;78.52;98446.81;2178872;82;21269;-67
2021/01/27 11:34:44;;;;;;;25.55;9.68;;;;;;;-0.79;78.84;98441.07;2178843;81;21167;-66
2021/01/27 11:37:46;;;;;;;27.60;8.90;;;;;;;-0.69;78.41;98442.98;2178759;81;21740;-67
2021/01/27 11:40:49;;;;;;;25.17;9.03;;;;;;;-0.65;77.94;98438.63;2178475;81;21776;-66
2021/01/27 11:43:51;;;;;;;25.10;8.90;;;;;;;-0.63;77.28;98448.45;2178969;81;21296;-64
2021/01/27 11:46:54;;;;;;;25.88;8.60;;;;;;;-0.65;77.33;98435.60;2178515;81;21285;-65
2021/01/27 11:49:56;;;;;;;24.23;8.40;;;;;;;-0.64;76.38;98452.77;2179075;81;21111;-63
2021/01/27 11:52:58;;;;;;;24.67;8.78;;;;;;;-0.71;75.93;98446.88;2150890;82;21300;-63
2021/01/27 11:56:01;;;;;;;27.15;9.13;;;;;;;-0.73;76.52;98442.22;2178726;82;21277;-63
2021/01/27 11:59:04;;;;;;;26.37;8.75;;;;;;;-0.72;77.26;98433.62;2178715;82;21175;-63
2021/01/27 12:02:06;;;;;;;26.12;9.05;;;;;;;-0.70;77.12;98442.14;2178600;81;21312;-63
2021/01/27 12:05:08;;;;;;;23.60;8.28;;;;;;;-0.73;76.99;98434.94;2179077;82;21198;-63
2021/01/27 12:08:10;;;;;;;24.95;8.50;;;;;;;-0.70;77.60;98439.57;2178836;82;21280;-64
2021/01/27 12:11:13;;;;;;;25.45;9.33;;;;;;;-0.74;77.75;98435.81;2178601;81;21280;-64
2021/01/27 12:14:15;;;;;;;26.12;9.93;;;;;;;-0.72;78.17;98447.78;2178837;81;21570;-63
2021/01/27 12:17:17;;;;;;;26.65;9.23;;;;;;;-0.78;78.16;98437.59;2178860;81;21701;-64
2021/01/27 12:20:20;;;;;;;25.15;8.60;;;;;;;-0.78;78.01;98436.75;2178832;81;21107;-63
2021/01/27 12:23:22;;;;;;;28.95;9.73;;;;;;;-0.78;78.30;98439.33;2178675;81;21334;-65
2021/01/27 12:26:24;;;;;;;26.77;9.63;;;;;;;-0.86;78.22;98439.50;2179028;81;21143;-63
2021/01/27 12:29:26;;;;;;;25.05;8.18;;;;;;;-0.96;78.96;98441.41;2174834;81;21281;-63
2021/01/27 12:32:29;;;;;;;26.95;9.45;;;;;;;-1.00;79.00;98437.20;2161384;82;21606;-63
2021/01/27 12:35:31;;;;;;;28.42;11.65;;;;;;;-1.09;79.33;98443.39;2161427;82;21297;-63
2021/01/27 12:38:34;;;;;;;26.05;8.65;;;;;;;-1.14;79.70;98445.19;2161055;82;21147;-63
2021/01/27 12:41:36;;;;;;;27.98;10.43;;;;;;;-1.16;79.43;98445.67;2161396;82;21341;-63
2021/01/27 12:44:38;;;;;;;29.92;11.60;;;;;;;-1.12;80.22;98437.44;2161381;82;21325;-63
2021/01/27 12:47:40;;;;;;;25.37;9.70;;;;;;;-1.01;79.60;98428.23;2161152;82;21309;-63
2021/01/27 12:50:43;;;;;;;26.12;9.55;;;;;;;-0.87;77.92;98431.36;2161220;82;21151;-63
2021/01/27 12:53:45;;;;;;;25.10;8.85;;;;;;;-0.71;77.90;98432.72;2161385;82;21285;-63
2021/01/27 12:56:47;;;;;;;22.62;8.35;;;;;;;-0.54;77.08;98431.06;2161363;82;21289;-63
2021/01/27 12:59:49;;;;;;;24.30;7.83;;;;;;;-0.35;74.64;98436.64;2161134;82;21147;-64
2021/01/27 13:02:51;;;;;;;23.55;6.97;;;;;;;-0.30;73.74;98441.71;2161253;82;21289;-63
2021/01/27 13:05:54;;;;;;;22.77;6.90;;;;;;;-0.22;74.59;98449.25;2161298;82;21697;-64
2021/01/27 13:08:56;;;;;;;21.10;6.62;;;;;;;-0.12;73.66;98444.28;2161094;82;21262;-62
2021/01/27 13:11:59;;;;;;;19.82;5.62;;;;;;;-0.17;71.37;98448.72;2161098;82;21666;-63
2021/01/27 13:15:01;;;;;;;20.72;6.10;;;;;;;-0.21;71.24;98455.66;2161148;82;21128;-64
2021/01/27 13:18:03;;;;;;;19.95;5.42;;;;;;;-0.27;70.89;98448.08;2161407;82;21294;-63
2021/01/27 13:21:07;;;;;;;21.10;5.95;;;;;;;-0.38;70.34;98453.47;2161384;81;21269;-64
2021/01/27 13:24:09;;;;;;;22.73;6.60;;;;;;;-0.41;70.43;98460.44;2161258;82;21297;-64
2021/01/27 13:27:11;;;;;;;21.33;6.25;;;;;;;-0.42;71.05;98456.16;2161258;82;21701;-66
2021/01/27 13:30:13;;;;;;;25.02;5.80;;;;;;;-0.39;71.15;98456.08;2167433;82;21151;-64
2021/01/27 13:33:16;;;;;;;22.07;6.20;;;;;;;-0.44;70.29;98458.77;2178658;82;21570;-69
2021/01/27 13:36:18;;;;;;;20.75;5.72;;;;;;;-0.41;70.71;98462.56;2178898;82;21161;-64
2021/01/27 13:39:20;;;;;;;22.73;6.17;;;;;;;-0.40;70.03;98461.69;2178533;81;21256;-63
2021/01/27 13:42:22;;;;;;;22.27;5.80;;;;;;;-0.42;70.12;98464.72;2178631;81;21693;-64
2021/01/27 13:45:25;;;;;;;19.95;5.37;;;;;;;-0.42;70.79;98464.72;2178536;81;21305;-63
2021/01/27 13:48:27;;;;;;;21.40;5.97;;;;;;;-0.41;71.10;98460.44;2178409;81;21261;-63
2021/01/27 13:51:30;;;;;;;20.15;5.22;;;;;;;-0.45;69.55;98462.67;2178440;81;21289;-63
2021/01/27 13:54:32;;;;;;;20.12;6.05;;;;;;;-0.50;69.85;98465.36;2178858;82;21141;-63
2021/01/27 13:57:35;;;;;;;;;;;;;;;-0.49;71.17;98459.75;2180984;81;21292;-63
2021/01/27 14:00:37;;;;;;;16.60;4.55;;;;;;;-0.57;69.92;98485.69;2179078;82;20138;-63